| time (UTC) | temp C | wind direction | speed KPH | gust KPH | rain 1hr cm | rain 24hr cm | rain mn cm | humidity % | barometer mb |
| 20260906234502 | 17 | 24 | 8.0 | 12.9 | 0.03 | 0.66 | 0.51 | 73 | 1012.1 |
| 20260906233006 | 17 | 38 | 6.4 | 14.5 | 0.03 | 0.66 | 0.51 | 72 | 1012.1 |
| 20260906231602 | 17 | 58 | 4.8 | 12.9 | 0.03 | 0.66 | 0.51 | 73 | 1012.2 |
| 20260906230107 | 17 | 38 | 8.0 | 12.9 | 0.03 | 0.66 | 0.51 | 75 | 1012.3 |
| 20260906224559 | 17 | 13 | 6.4 | 11.3 | 0.03 | 0.64 | 0.48 | 75 | 1012.6 |
| 20260906223057 | 16 | 10 | 6.4 | 12.9 | 0.03 | 0.64 | 0.48 | 77 | 1012.6 |
| 20260906221553 | 16 | 15 | 14.5 | 19.3 | 0.03 | 0.64 | 0.48 | 77 | 1012.8 |
| 20260906220052 | 16 | 14 | 11.3 | 17.7 | 0.03 | 0.64 | 0.48 | 77 | 1012.9 |
| 20260906214550 | 16 | 5 | 9.7 | 16.1 | 0.03 | 0.61 | 0.46 | 77 | 1012.8 |
| 20260906213055 | 16 | 355 | 11.3 | 16.1 | 0.03 | 0.61 | 0.46 | 77 | 1012.8 |
| 20260906211549 | 16 | 360 | 6.4 | 14.5 | 0.03 | 0.61 | 0.46 | 80 | 1012.6 |
| 20260906210048 | 16 | 343 | 8.0 | 11.3 | 0.03 | 0.61 | 0.46 | 82 | 1012.5 |
| 20260906204551 | 16 | 323 | 4.8 | 11.3 | 0.03 | 0.58 | 0.43 | 81 | 1012.7 |
| 20260906203047 | 16 | 319 | 3.2 | 9.7 | 0.03 | 0.58 | 0.43 | 82 | 1012.6 |
| 20260906201612 | 16 | 311 | 0.0 | 6.4 | 0.03 | 0.61 | 0.43 | 82 | 1012.8 |
| 20260906200046 | 16 | 280 | 3.2 | 8.0 | 0.05 | 0.61 | 0.43 | 82 | 1012.8 |
| 20260906194554 | 16 | 281 | 3.2 | 8.0 | 0.03 | 0.58 | 0.41 | 83 | 1012.7 |
| 20260906193046 | 16 | 270 | 4.8 | 8.0 | 0.03 | 0.58 | 0.41 | 82 | 1012.9 |
| 20260906191543 | 16 | 214 | 4.8 | 8.0 | 0.05 | 0.61 | 0.41 | 80 | 1013.2 |
| 20260906190041 | 16 | 150 | 0.0 | 3.2 | 0.03 | 0.58 | 0.38 | 80 | 1013.3 |
| 20260906184541 | 16 | 150 | 0.0 | 4.8 | 0.03 | 0.58 | 0.38 | 81 | 1013.3 |
| 20260906183043 | 16 | 140 | 4.8 | 12.9 | 0.05 | 0.58 | 0.38 | 83 | 1013.3 |
| 20260906181546 | 16 | 138 | 16.1 | 22.5 | 0.03 | 0.58 | 0.36 | 84 | 1013.0 |
| 20260906180040 | 15 | 107 | 16.1 | 24.1 | 0.03 | 0.58 | 0.36 | 88 | 1013.2 |
| 20260906174533 | 14 | 94 | 14.5 | 24.1 | 0.05 | 0.58 | 0.36 | 89 | 1013.8 |
| 20260906173033 | 14 | 78 | 16.1 | 25.7 | 0.05 | 0.58 | 0.36 | 90 | 1014.0 |
| 20260906171533 | 13 | 73 | 12.9 | 25.7 | 0.03 | 0.58 | 0.33 | 90 | 1014.4 |
| 20260906170032 | 13 | 109 | 20.9 | 30.6 | 0.05 | 0.58 | 0.33 | 92 | 1013.9 |
| 20260906164528 | 12 | 93 | 9.7 | 14.5 | 0.03 | 0.56 | 0.30 | 93 | 1015.0 |
| 20260906163041 | 12 | 32 | 6.4 | 14.5 | 0.03 | 0.56 | 0.30 | 94 | 1015.5 |
| 20260906161527 | 12 | 5 | 6.4 | 11.3 | 0.05 | 0.58 | 0.30 | 93 | 1015.4 |
| 20260906160028 | 12 | 80 | 3.2 | 12.9 | 0.05 | 0.58 | 0.30 | 93 | 1015.4 |
| 20260906154523 | 12 | 78 | 8.0 | 12.9 | 0.03 | 0.56 | 0.28 | 93 | 1015.3 |
| 20260906153022 | 12 | 66 | 6.4 | 12.9 | 0.05 | 0.56 | 0.28 | 93 | 1015.5 |
| 20260906151523 | 11 | 54 | 9.7 | 16.1 | 0.03 | 0.56 | 0.25 | 93 | 1015.7 |
| 20260906150026 | 11 | 75 | 11.3 | 17.7 | 0.03 | 0.56 | 0.25 | 93 | 1015.7 |
| 20260906144520 | 11 | 55 | 12.9 | 22.5 | 0.05 | 0.56 | 0.25 | 93 | 1015.8 |
| 20260906143019 | 11 | 67 | 14.5 | 24.1 | 0.03 | 0.53 | 0.23 | 93 | 1016.1 |
| 20260906141518 | 11 | 44 | 22.5 | 37.0 | 0.03 | 0.56 | 0.23 | 92 | 1016.0 |
| 20260906140019 | 12 | 28 | 19.3 | 32.2 | 0.05 | 0.56 | 0.23 | 90 | 1016.4 |
| 20260906134512 | 12 | 38 | 14.5 | 30.6 | 0.03 | 0.53 | 0.20 | 90 | 1015.8 |
| 20260906133014 | 12 | 360 | 6.4 | 11.3 | 0.03 | 0.53 | 0.20 | 90 | 1015.3 |
| 20260906131511 | 12 | 74 | 3.2 | 8.0 | 0.03 | 0.56 | 0.20 | 89 | 1015.2 |
| 20260906130016 | 12 | 74 | 9.7 | 12.9 | 0.03 | 0.53 | 0.18 | 89 | 1015.1 |
| 20260906124513 | 12 | 29 | 3.2 | 8.0 | 0.03 | 0.53 | 0.18 | 90 | 1015.7 |
| 20260906123029 | 12 | 43 | 6.4 | 17.7 | 0.03 | 0.53 | 0.18 | 89 | 1015.8 |
| 20260906121510 | 12 | 63 | 19.3 | 27.4 | 0.05 | 0.53 | 0.18 | 89 | 1015.5 |
| 20260906120009 | 12 | 40 | 14.5 | 30.6 | 0.03 | 0.51 | 0.15 | 89 | 1015.5 |
| 20260906114509 | 13 | 52 | 19.3 | 37.0 | 0.03 | 0.51 | 0.15 | 86 | 1015.6 |
| 20260906113012 | 13 | 16 | 8.0 | 16.1 | 0.05 | 0.51 | 0.15 | 86 | 1015.5 |
| 20260906111506 | 13 | 146 | 14.5 | 24.1 | 0.03 | 0.48 | 0.13 | 87 | 1014.9 |
| 20260906110005 | 13 | 169 | 11.3 | 14.5 | 0.03 | 0.48 | 0.13 | 91 | 1014.8 |
| 20260906104504 | 13 | 167 | 3.2 | 6.4 | 0.05 | 0.48 | 0.13 | 91 | 1015.1 |
| 20260906103003 | 13 | 88 | 1.6 | 4.8 | 0.03 | 0.46 | 0.10 | 91 | 1015.5 |
| 20260906101502 | 13 | 88 | 3.2 | 14.5 | 0.03 | 0.46 | 0.10 | 90 | 1015.6 |
| 20260906100003 | 13 | 97 | 14.5 | 20.9 | 0.05 | 0.46 | 0.10 | 90 | 1015.4 |
| 20260906094600 | 13 | 98 | 19.3 | 27.4 | 0.05 | 0.46 | 0.10 | 90 | 1015.4 |
| 20260906093105 | 13 | 100 | 22.5 | 29.0 | 0.03 | 0.43 | 0.08 | 91 | 1015.5 |
| 20260906091558 | 12 | 98 | 22.5 | 30.6 | 0.05 | 0.43 | 0.08 | 92 | 1015.6 |
| 20260906090112 | 12 | 94 | 22.5 | 33.8 | 0.03 | 0.41 | 0.05 | 93 | 1015.7 |
| 20260906084601 | 12 | 86 | 20.9 | 29.0 | 0.05 | 0.41 | 0.05 | 93 | 1016.2 |
| 20260906083052 | 12 | 53 | 16.1 | 29.0 | 0.05 | 0.41 | 0.05 | 92 | 1016.6 |
| 20260906081556 | 13 | 34 | 17.7 | 29.0 | 0.05 | 0.38 | 0.03 | 88 | 1017.3 |
| 20260906080054 | 13 | 101 | 4.8 | 17.7 | 0.05 | 0.38 | 0.03 | 87 | 1017.0 |
| 20260906074548 | 13 | 17 | 32.2 | 62.8 | 0.05 | 0.38 | 0.03 | 90 | 1017.5 |
| 20260906073054 | 12 | 94 | 11.3 | 22.5 | 0.05 | 0.36 | 0.00 | 91 | 1016.4 |
| 20260906071542 | 12 | 63 | 9.7 | 17.7 | 0.03 | 0.33 | 0.33 | 91 | 1016.9 |
| 20260906070053 | 12 | 65 | 12.9 | 20.9 | 0.05 | 0.33 | 0.33 | 89 | 1017.0 |
| 20260906064541 | 12 | 87 | 17.7 | 27.4 | 0.05 | 0.33 | 0.33 | 88 | 1016.9 |
| 20260906063042 | 13 | 79 | 24.1 | 35.4 | 0.03 | 0.30 | 0.30 | 87 | 1017.0 |
| 20260906061552 | 12 | 88 | 19.3 | 33.8 | 0.05 | 0.30 | 0.30 | 90 | 1017.1 |
| 20260906060041 | 12 | 66 | 16.1 | 29.0 | 0.03 | 0.28 | 0.28 | 90 | 1017.5 |
| 20260906054540 | 13 | 22 | 14.5 | 22.5 | 0.03 | 0.28 | 0.28 | 87 | 1018.3 |
| 20260906053044 | 13 | 55 | 22.5 | 40.2 | 0.03 | 0.28 | 0.28 | 84 | 1017.1 |
| 20260906051537 | 13 | 77 | 19.3 | 35.4 | 0.03 | 0.25 | 0.25 | 86 | 1017.1 |
| 20260906050138 | 13 | 72 | 25.7 | 35.4 | 0.03 | 0.25 | 0.25 | 86 | 1017.3 |
| 20260906044537 | 13 | 54 | 16.1 | 25.7 | 0.03 | 0.25 | 0.25 | 87 | 1017.2 |
| 20260906043045 | 13 | 84 | 20.9 | 25.7 | 0.03 | 0.25 | 0.25 | 87 | 1016.7 |
| 20260906041536 | 13 | 42 | 12.9 | 27.4 | 0.03 | 0.23 | 0.23 | 86 | 1016.8 |
| 20260906040041 | 13 | 78 | 29.0 | 38.6 | 0.03 | 0.23 | 0.23 | 85 | 1016.1 |
| 20260906034534 | 13 | 92 | 30.6 | 40.2 | 0.03 | 0.23 | 0.23 | 86 | 1016.0 |
| 20260906033034 | 13 | 97 | 24.1 | 33.8 | 0.03 | 0.23 | 0.23 | 86 | 1016.1 |
| 20260906031533 | 14 | 71 | 14.5 | 27.4 | 0.00 | 0.20 | 0.20 | 84 | 1017.3 |
| 20260906030036 | 15 | 355 | 12.9 | 19.3 | 0.00 | 0.20 | 0.20 | 75 | 1017.5 |
| 20260906024536 | 16 | 26 | 6.4 | 14.5 | 0.00 | 0.20 | 0.20 | 70 | 1016.1 |
| 20260906023037 | 16 | 68 | 9.7 | 16.1 | 0.00 | 0.20 | 0.20 | 70 | 1014.7 |
| 20260906021532 | 16 | 72 | 14.5 | 24.1 | 0.00 | 0.20 | 0.20 | 68 | 1014.4 |
| 20260906020031 | 16 | 86 | 14.5 | 20.9 | 0.00 | 0.20 | 0.20 | 68 | 1014.7 |
| 20260906014541 | 17 | 82 | 19.3 | 22.5 | 0.00 | 0.20 | 0.20 | 67 | 1014.7 |
| 20260906013032 | 17 | 90 | 12.9 | 25.7 | 0.00 | 0.20 | 0.20 | 66 | 1014.8 |
| 20260906011530 | 17 | 91 | 17.7 | 27.4 | 0.00 | 0.20 | 0.20 | 64 | 1014.7 |
| 20260906010029 | 18 | 80 | 14.5 | 25.7 | 0.00 | 0.20 | 0.20 | 62 | 1014.6 |
| 20260906004530 | 18 | 87 | 20.9 | 29.0 | 0.00 | 0.20 | 0.20 | 61 | 1014.7 |
| 20260906003029 | 18 | 84 | 17.7 | 29.0 | 0.00 | 0.20 | 0.20 | 59 | 1014.6 |
| 20260906001528 | 19 | 63 | 17.7 | 25.7 | 0.00 | 0.20 | 0.20 | 57 | 1014.9 |
| 20260906000028 | 20 | 70 | 17.7 | 27.4 | 0.00 | 0.20 | 0.20 | 55 | 1015.1 |